Terminal Aerodrome Forecast
Issued by NWS

Home | Current Version | Previous Version | Text Only | Print | Product List | Glossary On
Versions: 1 2 3 4 5 6 7 8 9 10 11 12 13 14 15 16 17 18 19 20
000
FTUS43 KABR 292300
TAFATY
TAF
KATY 292328Z 3000/3024 35010KT P6SM OVC015
      TEMPO 3004/3006 SCT015
     FM300600 03004KT P6SM SCT250
     FM301400 18010KT P6SM SCT250=

USA.gov is the U.S. government's official web portal to all federal, state and local government web resources and services.